createdAt,value
2022-11-10T00:06:02.459Z,100687
2022-11-10T00:12:31.170Z,100702
2022-11-10T00:18:40.799Z,100709
2022-11-10T00:24:45.839Z,100733
2022-11-10T00:30:44.523Z,100726
2022-11-10T00:36:59.905Z,100742
2022-11-10T00:49:33.079Z,100750
2022-11-10T00:55:50.670Z,100745
2022-11-10T01:58:34.732Z,100785
2022-11-10T02:48:15.301Z,100838
2022-11-10T02:54:40.453Z,100841
2022-11-10T03:08:01.843Z,100855
2022-11-10T03:14:35.380Z,100856
2022-11-10T03:32:38.728Z,100873
2022-11-10T04:08:55.172Z,100910
2022-11-10T04:21:04.520Z,100922
2022-11-10T04:27:24.907Z,100951
2022-11-10T04:40:46.292Z,100960
2022-11-10T05:04:57.708Z,101003
2022-11-10T05:35:33.850Z,101051
2022-11-10T05:47:50.805Z,101063
2022-11-10T05:53:52.621Z,101076
2022-11-10T08:06:40.045Z,101280
2022-11-10T08:12:36.015Z,101292
2022-11-10T08:18:34.031Z,101300
2022-11-10T08:24:41.727Z,101308
2022-11-10T08:30:33.758Z,101314
2022-11-10T08:36:32.763Z,101316
2022-11-10T08:42:36.962Z,101312
2022-11-10T08:48:39.746Z,101325
2022-11-10T09:06:17.168Z,101358
2022-11-10T09:12:12.199Z,101367
2022-11-10T09:18:11.317Z,101377
2022-11-10T09:24:16.251Z,101374
2022-11-10T09:30:06.403Z,101382
2022-11-10T09:36:04.775Z,101395
2022-11-10T09:41:56.302Z,101404
2022-11-10T09:48:18.470Z,101396
2022-11-10T09:54:15.210Z,101399
2022-11-10T10:00:09.846Z,101404
2022-11-10T10:06:04.870Z,101409
2022-11-10T10:12:01.057Z,101402
2022-11-10T10:17:59.983Z,101418
2022-11-10T10:24:23.425Z,101414
2022-11-10T10:30:29.243Z,101422
2022-11-10T10:36:22.909Z,101431
2022-11-10T10:42:24.402Z,101432
2022-11-10T10:48:23.815Z,101431
2022-11-10T10:54:22.109Z,101428
2022-11-10T11:01:33.778Z,101432
2022-11-10T11:07:22.616Z,101438
2022-11-10T11:13:13.605Z,101431
2022-11-10T11:19:06.701Z,101429
2022-11-10T11:24:58.273Z,101429
2022-11-10T11:30:52.473Z,101433
2022-11-10T11:36:44.232Z,101432
2022-11-10T11:42:35.849Z,101438
2022-11-10T11:48:27.511Z,101455
2022-11-10T11:54:19.448Z,101466
2022-11-10T12:00:10.649Z,101481
2022-11-10T12:06:01.592Z,101475
2022-11-10T12:11:51.223Z,101482
2022-11-10T12:17:40.459Z,101481
2022-11-10T12:23:31.997Z,101485
2022-11-10T12:29:22.839Z,101485
2022-11-10T12:35:14.014Z,101486
2022-11-10T12:41:06.137Z,101505
2022-11-10T12:46:57.915Z,101501
2022-11-10T12:52:48.288Z,101502
2022-11-10T12:58:39.109Z,101487
2022-11-10T13:04:32.184Z,101495
2022-11-10T13:10:23.524Z,101490
2022-11-10T13:16:14.409Z,101500
2022-11-10T13:22:05.231Z,101507
2022-11-10T13:27:56.882Z,101505
2022-11-10T13:33:49.382Z,101514
2022-11-10T13:39:40.964Z,101523
2022-11-10T13:45:33.081Z,101533
2022-11-10T13:51:23.763Z,101527
2022-11-10T13:57:14.277Z,101517
2022-11-10T14:03:06.894Z,101531
2022-11-10T14:08:58.904Z,101533
2022-11-10T14:14:51.701Z,101532
2022-11-10T14:20:42.599Z,101535
2022-11-10T14:26:33.301Z,101535
2022-11-10T14:32:24.702Z,101555
2022-11-10T14:38:24.449Z,101557
2022-11-10T14:44:17.450Z,101555
2022-11-10T14:50:07.998Z,101555
2022-11-10T14:55:58.784Z,101549
2022-11-10T15:01:49.349Z,101547
2022-11-10T15:07:40.943Z,101541
2022-11-10T15:13:31.915Z,101541
2022-11-10T15:19:22.396Z,101544
2022-11-10T15:25:13.673Z,101550
2022-11-10T15:31:04.368Z,101556
2022-11-10T15:36:54.697Z,101558
2022-11-10T15:42:46.222Z,101564
2022-11-10T15:48:37.534Z,101560
2022-11-10T15:54:29.583Z,101563
2022-11-10T16:00:21.930Z,101556
2022-11-10T16:06:12.865Z,101565
2022-11-10T16:12:02.844Z,101573
2022-11-10T16:17:52.162Z,101587
2022-11-10T16:23:42.099Z,101602
2022-11-10T16:29:33.090Z,101614
2022-11-10T16:35:24.388Z,101614
2022-11-10T16:41:15.956Z,101610
2022-11-10T16:47:08.282Z,101614
2022-11-10T16:52:59.369Z,101630
2022-11-10T16:58:52.144Z,101634
2022-11-10T17:04:42.510Z,101637
2022-11-10T17:10:36.842Z,101658
2022-11-10T17:16:28.723Z,101676
2022-11-10T17:22:20.310Z,101678
2022-11-10T17:28:09.995Z,101698
2022-11-10T17:37:33.299Z,101701
2022-11-10T17:43:20.517Z,101713
2022-11-10T17:49:13.335Z,101717
2022-11-10T17:55:19.279Z,101713
2022-11-10T18:01:09.111Z,101713
2022-11-10T18:07:00.085Z,101708
2022-11-10T18:12:50.100Z,101699
2022-11-10T18:18:44.067Z,101711
2022-11-10T18:24:35.078Z,101710
2022-11-10T18:30:28.759Z,101735
2022-11-10T18:36:24.347Z,101738
2022-11-10T18:42:15.606Z,101737
2022-11-10T18:48:06.578Z,101723
2022-11-10T18:53:56.866Z,101740
2022-11-10T18:59:47.236Z,101741
2022-11-10T19:05:38.068Z,101744
2022-11-10T19:11:30.294Z,101757
2022-11-10T19:17:21.011Z,101743
2022-11-10T19:23:11.327Z,101743
2022-11-10T19:29:01.969Z,101727
2022-11-10T19:34:52.564Z,101729
2022-11-10T19:40:43.533Z,101741
2022-11-10T19:46:32.287Z,101753
2022-11-10T19:52:23.523Z,101753
2022-11-10T19:58:13.786Z,101758
2022-11-10T20:04:04.774Z,101763
2022-11-10T20:09:55.623Z,101762
2022-11-10T20:15:47.936Z,101751
2022-11-10T20:21:38.739Z,101757
2022-11-10T20:27:29.766Z,101762
2022-11-10T20:33:21.933Z,101768
2022-11-10T20:39:13.908Z,101765
2022-11-10T20:45:04.416Z,101761
2022-11-10T20:50:55.240Z,101749
2022-11-10T20:56:46.740Z,101764
2022-11-10T21:02:38.029Z,101784
2022-11-10T21:08:29.310Z,101768
2022-11-10T21:14:19.306Z,101774
2022-11-10T21:20:10.257Z,101765
2022-11-10T21:26:00.633Z,101769
2022-11-10T21:31:51.280Z,101774
2022-11-10T21:37:42.380Z,101784
2022-11-10T21:43:32.507Z,101786
2022-11-10T21:49:22.813Z,101789
2022-11-10T21:55:13.352Z,101783
2022-11-10T22:01:03.213Z,101788
2022-11-10T22:06:55.156Z,101793
2022-11-10T22:12:45.701Z,101809
2022-11-10T22:18:34.678Z,101819
2022-11-10T22:24:25.162Z,101815
2022-11-10T22:30:15.562Z,101805
2022-11-10T22:36:06.718Z,101801
2022-11-10T22:41:58.343Z,101815
2022-11-10T22:47:49.128Z,101817
2022-11-10T22:53:40.092Z,101810
2022-11-10T22:59:30.650Z,101811
2022-11-10T23:05:21.390Z,101832
2022-11-10T23:11:10.556Z,101829
2022-11-10T23:29:31.335Z,101822
2022-11-10T23:35:46.181Z,101853
2022-11-10T23:42:03.814Z,101856
